Time;durP1;ratioP1;P1;durP2;ratioP2;P2;SDS_P1;SDS_P2;PMS_P1;PMS_P2;Temp;Humidity;BMP_temperature;BMP_pressure;BME280_temperature;BME280_humidity;BME280_pressure;Samples;Min_cycle;Max_cycle;Signal;HPM_P1;HPM_P2
2022/08/27 00:00:13;;;;;;;4.07;2.42;;;25.70;91.40;;;;;;5034500;28;20021;-24
2022/08/27 00:02:40;;;;;;;4.53;2.53;;;25.70;91.40;;;;;;5033596;28;20433;-24
2022/08/27 00:05:06;;;;;;;2.83;2.50;;;25.70;91.40;;;;;;5034534;28;20025;-24
2022/08/27 00:07:32;;;;;;;4.40;2.72;;;25.60;91.40;;;;;;5034646;28;20531;-24
2022/08/27 00:09:58;;;;;;;2.58;2.38;;;25.70;91.40;;;;;;5034689;28;20029;-24
2022/08/27 00:12:24;;;;;;;2.47;2.28;;;25.70;91.40;;;;;;5034852;28;20024;-24
2022/08/27 00:14:50;;;;;;;4.65;2.50;;;25.60;91.40;;;;;;5033972;28;20112;-24
2022/08/27 00:17:16;;;;;;;2.83;2.58;;;25.60;91.40;;;;;;5016882;28;20116;-24
2022/08/27 00:19:42;;;;;;;3.53;2.45;;;25.70;91.50;;;;;;5033986;28;20109;-24
2022/08/27 00:22:09;;;;;;;4.40;2.20;;;25.60;91.50;;;;;;5033531;28;20056;-25
2022/08/27 00:24:35;;;;;;;3.20;2.90;;;25.60;91.40;;;;;;5033638;28;20025;-24
2022/08/27 00:27:01;;;;;;;6.53;3.05;;;25.60;91.50;;;;;;5033645;28;20395;-25
2022/08/27 00:29:27;;;;;;;3.47;2.67;;;25.60;91.50;;;;;;5033294;28;20435;-25
2022/08/27 00:31:53;;;;;;;3.65;2.50;;;25.60;91.50;;;;;;5033454;28;20101;-24
2022/08/27 00:34:21;;;;;;;2.90;2.60;;;25.60;91.50;;;;;;5033288;28;20033;-25
2022/08/27 00:36:46;;;;;;;5.32;2.63;;;25.60;91.50;;;;;;5033418;28;20025;-25
2022/08/27 00:39:12;;;;;;;3.35;2.67;;;25.60;91.60;;;;;;5033250;28;20402;-25
2022/08/27 00:41:40;;;;;;;4.40;2.88;;;25.60;91.60;;;;;;5033319;28;20115;-25
2022/08/27 00:44:06;;;;;;;3.78;2.50;;;25.60;91.60;;;;;;5033250;28;20108;-24
2022/08/27 00:46:57;;;;;;;4.00;2.40;;;25.60;91.60;;;;;;5033228;28;20099;-24
2022/08/27 00:49:43;;;;;;;2.88;2.53;;;25.60;91.60;;;;;;5033030;28;20033;-25
2022/08/27 00:52:28;;;;;;;4.78;2.80;;;25.60;91.70;;;;;;5033190;28;20029;-25
2022/08/27 00:55:22;;;;;;;4.28;2.55;;;25.60;91.70;;;;;;5033076;28;20410;-24
2022/08/27 00:57:58;;;;;;;3.20;2.75;;;25.60;91.70;;;;;;5013343;28;20036;-24
2022/08/27 01:00:24;;;;;;;3.25;2.75;;;25.60;91.70;;;;;;5032819;28;20052;-24
2022/08/27 01:02:50;;;;;;;3.70;2.78;;;25.60;91.70;;;;;;5032994;28;20474;-25
2022/08/27 01:05:20;;;;;;;4.82;2.90;;;25.60;91.70;;;;;;5032878;28;20025;-24
2022/08/27 01:07:50;;;;;;;4.18;3.05;;;25.50;91.70;;;;;;5032723;28;20026;-24
2022/08/27 01:10:19;;;;;;;3.25;2.85;;;25.60;91.70;;;;;;5032636;28;20017;-24
2022/08/27 01:12:45;;;;;;;5.05;3.28;;;25.60;91.70;;;;;;5032501;28;20481;-25
2022/08/27 01:15:15;;;;;;;3.72;2.92;;;25.60;91.70;;;;;;5032648;28;20103;-25
2022/08/27 01:17:43;;;;;;;4.72;2.80;;;25.50;91.70;;;;;;5032675;28;20167;-25
2022/08/27 01:20:16;;;;;;;3.80;3.47;;;25.50;91.70;;;;;;5032363;28;20037;-25
2022/08/27 01:23:05;;;;;;;4.45;3.17;;;25.50;91.70;;;;;;5032624;28;20508;-24
2022/08/27 01:25:32;;;;;;;4.30;3.05;;;25.50;91.70;;;;;;5032640;28;20018;-24
2022/08/27 01:27:59;;;;;;;3.35;3.05;;;25.50;91.70;;;;;;5032630;28;20037;-24
2022/08/27 01:30:25;;;;;;;3.97;3.45;;;25.50;91.70;;;;;;5032264;28;20418;-24
2022/08/27 01:32:52;;;;;;;3.80;3.13;;;25.50;91.70;;;;;;5032320;28;20390;-24
2022/08/27 01:35:19;;;;;;;5.20;3.10;;;25.50;91.70;;;;;;5032184;28;20040;-24
2022/08/27 01:37:48;;;;;;;5.50;2.88;;;25.50;91.70;;;;;;5032357;28;20013;-24
2022/08/27 01:40:15;;;;;;;6.20;3.50;;;25.50;91.70;;;;;;5032196;28;20021;-24
2022/08/27 01:42:44;;;;;;;7.40;3.95;;;25.50;91.80;;;;;;5032267;28;20021;-24
2022/08/27 01:45:19;;;;;;;4.25;3.30;;;25.50;91.70;;;;;;5032080;28;20033;-24
2022/08/27 01:47:46;;;;;;;4.28;3.70;;;25.50;91.70;;;;;;5032222;28;20078;-24
2022/08/27 01:50:18;;;;;;;4.47;3.40;;;25.50;91.70;;;;;;5031937;28;20083;-24
2022/08/27 01:52:44;;;;;;;4.55;3.38;;;25.50;91.70;;;;;;5032073;28;20541;-24
2022/08/27 01:55:12;;;;;;;4.10;3.30;;;25.50;92.10;;;;;;5014307;28;20025;-24
2022/08/27 01:57:38;;;;;;;4.57;3.33;;;25.50;91.80;;;;;;5032028;28;20028;-24
2022/08/27 02:00:10;;;;;;;4.70;3.50;;;25.50;91.80;;;;;;5031698;28;20521;-24
2022/08/27 02:02:37;;;;;;;4.20;3.15;;;25.50;91.80;;;;;;5014356;28;20116;-24
2022/08/27 02:05:03;;;;;;;3.35;3.05;;;25.50;91.80;;;;;;5031916;28;20040;-24
2022/08/27 02:07:29;;;;;;;5.80;3.65;;;25.50;91.80;;;;;;5032345;28;20033;-24
2022/08/27 02:09:55;;;;;;;5.10;3.80;;;25.50;91.80;;;;;;5031754;28;20029;-24
2022/08/27 02:12:20;;;;;;;5.35;3.60;;;25.50;91.80;;;;;;5031714;28;20066;-24
2022/08/27 02:14:47;;;;;;;4.03;3.28;;;25.50;91.80;;;;;;5014061;28;20040;-24
2022/08/27 02:17:12;;;;;;;3.70;3.10;;;25.40;91.70;;;;;;5031885;28;20026;-24
2022/08/27 02:19:38;;;;;;;5.40;3.63;;;25.40;91.80;;;;;;5031749;28;20031;-24
2022/08/27 02:22:03;;;;;;;4.45;3.55;;;25.40;91.80;;;;;;5031985;28;20037;-24
2022/08/27 02:24:29;;;;;;;3.53;3.08;;;25.40;91.70;;;;;;5032025;28;20118;-24
2022/08/27 02:26:56;;;;;;;3.90;3.50;;;25.40;91.80;;;;;;5035518;28;20032;-24
2022/08/27 02:29:23;;;;;;;5.45;3.63;;;25.50;91.80;;;;;;5035637;28;20029;-24
2022/08/27 02:31:49;;;;;;;3.75;3.42;;;25.40;92.10;;;;;;5035922;28;20026;-24
2022/08/27 02:34:15;;;;;;;3.97;3.58;;;25.40;91.80;;;;;;5035652;28;20025;-24
2022/08/27 02:36:41;;;;;;;5.70;3.67;;;25.40;91.80;;;;;;5035749;28;20017;-24
2022/08/27 02:39:07;;;;;;;4.15;3.40;;;25.40;91.80;;;;;;5035470;28;20171;-24
2022/08/27 02:41:34;;;;;;;5.18;3.60;;;25.40;91.80;;;;;;5035411;28;20037;-24
2022/08/27 02:44:00;;;;;;;6.22;3.65;;;25.40;91.80;;;;;;5035507;28;20478;-24
2022/08/27 02:46:26;;;;;;;5.40;3.60;;;25.40;91.80;;;;;;5035529;28;20025;-24
2022/08/27 02:48:51;;;;;;;4.22;3.78;;;25.40;91.80;;;;;;5035263;28;20033;-24
2022/08/27 02:51:17;;;;;;;4.15;3.40;;;25.40;91.80;;;;;;5035388;28;20489;-24
2022/08/27 02:53:43;;;;;;;4.50;3.60;;;25.40;91.90;;;;;;5035443;28;20413;-24
2022/08/27 02:56:09;;;;;;;5.57;3.47;;;25.40;91.80;;;;;;5035191;28;20025;-24
2022/08/27 02:58:35;;;;;;;4.22;3.70;;;25.40;91.90;;;;;;5035427;28;20378;-24
2022/08/27 03:01:01;;;;;;;5.60;3.80;;;25.40;91.90;;;;;;5035184;28;20030;-24
2022/08/27 03:03:28;;;;;;;5.20;3.80;;;25.30;91.80;;;;;;5035167;28;20029;-24
2022/08/27 03:05:54;;;;;;;6.10;4.10;;;25.30;91.80;;;;;;5035225;28;20056;-24
2022/08/27 03:08:20;;;;;;;4.13;3.72;;;25.30;91.90;;;;;;5035101;28;20502;-24
2022/08/27 03:10:46;;;;;;;4.15;3.75;;;25.30;91.90;;;;;;5034674;28;20060;-24
2022/08/27 03:13:11;;;;;;;4.55;3.97;;;25.30;91.90;;;;;;5035250;28;20029;-24
2022/08/27 03:15:37;;;;;;;3.63;3.30;;;25.30;91.90;;;;;;5034971;28;20029;-24
2022/08/27 03:18:18;;;;;;;4.38;3.80;;;25.30;91.90;;;;;;5034938;28;20473;-24
2022/08/27 03:20:51;;;;;;;4.32;3.88;;;25.30;91.90;;;;;;5034728;28;20022;-24
2022/08/27 03:23:21;;;;;;;4.32;3.72;;;25.30;91.90;;;;;;5034786;28;20029;-24
2022/08/27 03:25:52;;;;;;;4.90;3.90;;;25.30;91.90;;;;;;5034841;28;20471;-24
2022/08/27 03:28:20;;;;;;;4.85;4.00;;;25.30;91.90;;;;;;5035050;28;20037;-24
2022/08/27 03:30:52;;;;;;;6.90;4.30;;;25.30;91.90;;;;;;5034869;28;20029;-24
2022/08/27 03:33:19;;;;;;;5.18;4.60;;;25.20;91.90;;;;;;5034731;28;20040;-24
2022/08/27 03:35:46;;;;;;;5.80;4.65;;;25.20;91.90;;;;;;5034166;28;20041;-24
2022/08/27 03:38:13;;;;;;;5.70;4.72;;;25.30;91.90;;;;;;5034770;28;20036;-24
2022/08/27 03:40:38;;;;;;;4.45;4.05;;;25.30;92.00;;;;;;5034350;28;20030;-24
2022/08/27 03:43:04;;;;;;;4.68;4.18;;;25.30;92.00;;;;;;5034486;28;20022;-24
2022/08/27 03:45:30;;;;;;;5.80;4.80;;;25.20;92.00;;;;;;5034381;28;20033;-25
2022/08/27 03:47:56;;;;;;;5.72;4.68;;;25.20;92.00;;;;;;5034417;28;20030;-24
2022/08/27 03:50:21;;;;;;;6.53;4.93;;;25.20;92.00;;;;;;5033898;28;20475;-24
2022/08/27 03:52:48;;;;;;;5.82;4.60;;;25.20;92.30;;;;;;5034321;28;20029;-24
2022/08/27 03:55:13;;;;;;;6.68;4.97;;;25.20;92.00;;;;;;5016367;28;20045;-25
2022/08/27 03:57:39;;;;;;;5.88;5.18;;;25.20;92.00;;;;;;5034284;28;20494;-24
2022/08/27 04:00:13;;;;;;;6.03;5.30;;;25.20;92.10;;;;;;5034077;28;20471;-24
2022/08/27 04:02:41;;;;;;;8.15;4.63;;;25.20;92.00;;;;;;5034550;28;20357;-25
2022/08/27 04:05:10;;;;;;;6.90;5.72;;;25.20;92.10;;;;;;5034047;28;20505;-24
2022/08/27 04:07:37;;;;;;;7.43;5.60;;;25.20;92.10;;;;;;5034031;28;20083;-24
2022/08/27 04:10:04;;;;;;;6.47;5.45;;;25.20;92.10;;;;;;5033638;28;20052;-25
2022/08/27 04:12:30;;;;;;;7.80;5.15;;;25.10;92.00;;;;;;5033950;28;20087;-24
2022/08/27 04:14:56;;;;;;;7.90;5.90;;;25.20;92.00;;;;;;5033818;28;20023;-24
2022/08/27 04:17:22;;;;;;;6.90;5.68;;;25.10;92.00;;;;;;5033672;28;20022;-24
2022/08/27 04:19:50;;;;;;;7.88;5.60;;;25.20;92.10;;;;;;5033670;28;20495;-24
2022/08/27 04:22:16;;;;;;;6.68;5.60;;;25.10;92.00;;;;;;5033695;28;20021;-24
2022/08/27 04:24:41;;;;;;;9.02;5.90;;;25.10;92.10;;;;;;5033570;28;20453;-25
2022/08/27 04:27:07;;;;;;;7.65;5.85;;;25.10;92.00;;;;;;5033656;28;20018;-24
2022/08/27 04:29:33;;;;;;;6.45;5.60;;;25.10;92.00;;;;;;5033411;28;20031;-25
2022/08/27 04:32:00;;;;;;;7.05;5.85;;;25.10;92.00;;;;;;5033371;28;20391;-25
2022/08/27 04:34:25;;;;;;;7.97;6.50;;;25.10;92.10;;;;;;5033363;28;20506;-24
2022/08/27 04:36:55;;;;;;;6.78;6.03;;;25.10;92.10;;;;;;5033485;28;20034;-24
2022/08/27 04:39:21;;;;;;;7.57;6.10;;;25.10;92.10;;;;;;5033345;28;20152;-24
2022/08/27 04:41:51;;;;;;;9.43;6.53;;;25.10;92.10;;;;;;5033331;28;20518;-24
2022/08/27 04:44:17;;;;;;;7.65;6.03;;;25.10;92.10;;;;;;5033198;28;20119;-24
2022/08/27 04:46:43;;;;;;;9.45;6.82;;;25.10;92.10;;;;;;5033210;28;20172;-24
2022/08/27 04:49:11;;;;;;;11.00;7.07;;;25.10;92.10;;;;;;5032526;28;20474;-24
2022/08/27 04:51:38;;;;;;;9.40;6.95;;;25.10;92.10;;;;;;5033183;28;20024;-24
2022/08/27 04:54:05;;;;;;;10.70;7.07;;;25.10;92.10;;;;;;5015260;28;20025;-24
2022/08/27 04:56:33;;;;;;;9.52;7.50;;;25.10;92.10;;;;;;5033118;28;20053;-24
2022/08/27 04:59:02;;;;;;;12.00;6.93;;;25.00;92.10;;;;;;5032782;28;20029;-24
2022/08/27 05:01:29;;;;;;;8.45;7.20;;;25.10;92.20;;;;;;5032966;28;20021;-24
2022/08/27 05:03:55;;;;;;;10.20;7.28;;;25.10;92.20;;;;;;5032899;28;20022;-24
2022/08/27 05:06:22;;;;;;;9.90;8.00;;;25.10;92.20;;;;;;5033146;28;20021;-24
2022/08/27 05:08:49;;;;;;;9.18;7.85;;;25.00;92.10;;;;;;5032753;28;20032;-24
2022/08/27 05:11:17;;;;;;;9.77;7.70;;;25.00;92.20;;;;;;5032763;28;20052;-24
2022/08/27 05:13:44;;;;;;;9.77;7.97;;;25.00;92.20;;;;;;5032518;28;20045;-24
2022/08/27 05:16:17;;;;;;;8.13;6.85;;;25.00;92.20;;;;;;5032681;28;20029;-24
2022/08/27 05:18:43;;;;;;;9.45;7.22;;;25.00;92.20;;;;;;5032625;28;20017;-24
2022/08/27 05:21:33;;;;;;;11.32;7.38;;;25.00;92.60;;;;;;5032738;28;20029;-24
2022/08/27 05:24:01;;;;;;;9.82;8.20;;;25.00;92.20;;;;;;5032474;28;20033;-24
2022/08/27 05:26:28;;;;;;;9.15;7.75;;;25.00;92.30;;;;;;5032676;28;20394;-24
2022/08/27 05:28:54;;;;;;;11.40;7.80;;;24.90;92.20;;;;;;5032742;28;20029;-24
2022/08/27 05:31:21;;;;;;;11.25;8.05;;;25.00;92.30;;;;;;5032636;28;20048;-24
2022/08/27 05:33:47;;;;;;;9.98;8.05;;;25.00;92.30;;;;;;5032448;28;20049;-24
2022/08/27 05:36:20;;;;;;;11.20;8.07;;;25.00;92.30;;;;;;5071995;22;20071;-25
2022/08/27 05:38:48;;;;;;;10.05;8.68;;;24.90;92.30;;;;;;5034171;28;20047;-25
2022/08/27 05:41:16;;;;;;;10.30;8.20;;;24.90;92.30;;;;;;5052207;28;20017;-26
2022/08/27 05:43:43;;;;;;;10.15;8.18;;;24.90;92.30;;;;;;5052437;28;20029;-26
2022/08/27 05:46:12;;;;;;;10.73;8.82;;;24.90;92.40;;;;;;5052091;28;20386;-27
2022/08/27 05:48:40;;;;;;;10.50;9.25;;;24.90;92.40;;;;;;5052032;28;20028;-25
2022/08/27 05:51:16;;;;;;;11.27;8.90;;;24.90;92.40;;;;;;5051805;28;20036;-25
2022/08/27 05:53:42;;;;;;;10.65;8.40;;;24.90;92.70;;;;;;5052070;28;20028;-25
2022/08/27 05:56:16;;;;;;;10.32;8.23;;;24.90;92.40;;;;;;5052000;28;20020;-26
2022/08/27 06:01:26;;;;;;;12.07;9.05;;;24.90;92.40;;;;;;5051581;28;20032;-27
2022/08/27 06:03:53;;;;;;;9.98;8.85;;;24.90;92.40;;;;;;5051904;28;20042;-26
2022/08/27 06:06:21;;;;;;;10.73;8.38;;;24.90;92.40;;;;;;5051820;28;20021;-26
2022/08/27 06:08:48;;;;;;;13.75;8.82;;;24.90;92.40;;;;;;5051796;28;20062;-26
2022/08/27 06:11:14;;;;;;;11.93;9.40;;;24.90;92.40;;;;;;5051749;28;20422;-27
2022/08/27 06:13:40;;;;;;;10.60;9.25;;;24.90;92.50;;;;;;5051832;28;20532;-27
2022/08/27 06:16:13;;;;;;;11.15;8.80;;;24.90;92.50;;;;;;5051623;28;20044;-27
2022/08/27 06:18:39;;;;;;;10.57;8.73;;;24.90;92.50;;;;;;5051622;28;20021;-26
2022/08/27 06:21:05;;;;;;;10.93;8.82;;;24.90;92.50;;;;;;5051665;28;20102;-26
2022/08/27 06:23:31;;;;;;;11.05;8.93;;;24.90;92.50;;;;;;5051745;28;20037;-26
2022/08/27 06:25:57;;;;;;;10.35;8.75;;;24.90;92.50;;;;;;5051688;28;20035;-26
2022/08/27 06:28:28;;;;;;;11.05;8.43;;;24.90;92.90;;;;;;5051627;28;20083;-25
2022/08/27 06:31:02;;;;;;;11.02;8.48;;;24.90;92.50;;;;;;5051452;28;20025;-26
2022/08/27 06:33:29;;;;;;;11.73;8.95;;;24.90;92.60;;;;;;5051662;28;20537;-27
2022/08/27 06:36:00;;;;;;;11.38;8.73;;;24.90;92.60;;;;;;5051737;28;20402;-26
2022/08/27 06:38:27;;;;;;;10.93;8.75;;;24.90;92.50;;;;;;5051539;28;20024;-25
2022/08/27 06:40:54;;;;;;;10.15;8.60;;;24.90;92.60;;;;;;5051478;28;20154;-25
2022/08/27 06:43:20;;;;;;;10.32;8.45;;;24.80;92.50;;;;;;5051403;28;20508;-26
2022/08/27 06:45:45;;;;;;;10.18;8.23;;;24.80;92.60;;;;;;5051501;28;20100;-26
2022/08/27 06:48:11;;;;;;;9.75;7.97;;;24.90;92.60;;;;;;5051553;28;20028;-26
2022/08/27 06:50:39;;;;;;;10.60;7.68;;;24.90;92.60;;;;;;5051219;28;20029;-26
2022/08/27 06:53:05;;;;;;;10.70;8.25;;;24.80;92.60;;;;;;5051529;28;20026;-27
2022/08/27 06:55:31;;;;;;;9.45;8.00;;;24.80;92.60;;;;;;5051314;28;20035;-25
2022/08/27 06:57:56;;;;;;;9.10;8.20;;;24.80;92.50;;;;;;5051308;28;20092;-26
2022/08/27 07:00:22;;;;;;;8.52;6.93;;;24.80;92.50;;;;;;5051248;28;20029;-26
2022/08/27 07:02:49;;;;;;;9.57;8.50;;;24.80;92.60;;;;;;5051374;28;20031;-25
2022/08/27 07:05:15;;;;;;;8.95;7.45;;;24.80;92.60;;;;;;5051233;28;20036;-26
2022/08/27 07:07:41;;;;;;;8.23;6.72;;;24.90;92.60;;;;;;5051293;28;20204;-26
2022/08/27 07:10:07;;;;;;;8.82;7.32;;;24.80;92.90;;;;;;5051026;28;20328;-26
2022/08/27 07:12:32;;;;;;;17.95;13.32;;;24.80;92.50;;;;;;5054252;28;20437;-26
2022/08/27 07:14:58;;;;;;;34.05;13.40;;;24.80;93.20;;;;;;5054797;28;20129;-26
2022/08/27 07:17:24;;;;;;;25.65;11.82;;;24.50;93.70;;;;;;5054864;28;20032;-26
2022/08/27 07:19:49;;;;;;;24.92;11.05;;;24.40;93.80;;;;;;5054651;28;20033;-26
2022/08/27 07:22:15;;;;;;;31.42;9.77;;;24.50;93.70;;;;;;5054696;28;20072;-26
2022/08/27 07:24:41;;;;;;;24.77;9.93;;;24.50;93.60;;;;;;5054770;28;20482;-25
2022/08/27 07:27:08;;;;;;;28.30;10.48;;;24.60;93.60;;;;;;5054642;28;20446;-26
2022/08/27 07:29:34;;;;;;;26.05;9.40;;;24.70;93.50;;;;;;5054671;28;20031;-26
2022/08/27 07:31:59;;;;;;;18.52;8.50;;;24.70;93.50;;;;;;5054603;28;20108;-26
2022/08/27 07:34:25;;;;;;;19.05;8.18;;;24.80;93.40;;;;;;5054414;28;20017;-26
2022/08/27 07:36:51;;;;;;;20.00;8.18;;;24.70;93.30;;;;;;5054576;28;20039;-26
2022/08/27 07:39:16;;;;;;;25.33;7.82;;;24.70;93.30;;;;;;5054446;28;20025;-27
2022/08/27 07:44:26;;;;;;;12.05;6.95;;;24.80;93.20;;;;;;5054467;28;20060;-25
2022/08/27 07:46:57;;;;;;;16.98;7.57;;;24.80;93.20;;;;;;5054427;28;20067;-26
2022/08/27 07:49:24;;;;;;;15.15;7.20;;;24.80;93.20;;;;;;5054046;28;20452;-26
2022/08/27 07:51:50;;;;;;;14.30;6.38;;;24.80;93.10;;;;;;5054186;28;20044;-26
2022/08/27 07:54:17;;;;;;;13.30;6.47;;;24.80;93.10;;;;;;5054241;28;20013;-25
2022/08/27 07:56:43;;;;;;;11.65;6.40;;;24.80;93.10;;;;;;5054229;28;20545;-26
2022/08/27 07:59:09;;;;;;;14.80;6.43;;;24.80;93.10;;;;;;5054088;28;20100;-25
2022/08/27 08:01:35;;;;;;;10.10;6.10;;;24.80;93.10;;;;;;5054063;28;20070;-26
2022/08/27 08:04:01;;;;;;;14.52;6.30;;;24.80;93.10;;;;;;5054055;28;20052;-26
2022/08/27 08:06:27;;;;;;;11.75;5.88;;;24.80;93.00;;;;;;5053901;28;20017;-25
2022/08/27 08:08:53;;;;;;;10.23;6.10;;;24.80;93.00;;;;;;5053794;28;20025;-26
2022/08/27 08:11:19;;;;;;;10.90;5.68;;;24.80;93.00;;;;;;5053808;28;20029;-26
2022/08/27 08:13:46;;;;;;;16.48;5.97;;;24.80;93.00;;;;;;5053995;28;20025;-25
2022/08/27 08:16:12;;;;;;;13.50;6.13;;;24.80;93.00;;;;;;5053707;28;20052;-26
2022/08/27 08:18:38;;;;;;;10.75;5.70;;;24.80;92.90;;;;;;5053570;28;20083;-26
2022/08/27 08:21:07;;;;;;;12.50;5.60;;;24.80;93.30;;;;;;5054032;28;20096;-25
2022/08/27 08:23:33;;;;;;;12.52;5.82;;;24.80;92.90;;;;;;5052697;28;20049;-25
2022/08/27 08:26:00;;;;;;;9.00;5.20;;;24.70;92.90;;;;;;5053768;28;20033;-25
2022/08/27 08:28:27;;;;;;;10.10;5.25;;;24.70;92.90;;;;;;5053584;28;20053;-26
2022/08/27 08:30:54;;;;;;;8.98;5.72;;;24.70;92.90;;;;;;5053410;28;20028;-25
2022/08/27 08:33:21;;;;;;;8.38;5.28;;;24.80;92.90;;;;;;5053486;28;20021;-26
2022/08/27 08:35:50;;;;;;;11.20;5.35;;;24.70;92.90;;;;;;5053140;28;20128;-25
2022/08/27 08:38:17;;;;;;;11.02;5.75;;;24.70;92.90;;;;;;5035419;28;20021;-25
2022/08/27 08:40:49;;;;;;;9.73;5.43;;;24.70;92.90;;;;;;5053151;28;20029;-26
2022/08/27 08:43:26;;;;;;;9.20;5.97;;;24.80;92.90;;;;;;5053327;28;20027;-25
2022/08/27 08:45:54;;;;;;;10.43;5.40;;;24.80;92.80;;;;;;5053261;28;20025;-26
2022/08/27 08:48:22;;;;;;;8.50;5.60;;;24.70;92.80;;;;;;5052973;28;20028;-26
2022/08/27 08:50:56;;;;;;;8.68;5.28;;;24.80;92.80;;;;;;5052963;28;20486;-25
2022/08/27 08:53:44;;;;;;;8.32;5.05;;;24.80;92.80;;;;;;5053154;28;20048;-26
2022/08/27 08:56:40;;;;;;;9.23;4.90;;;24.80;92.70;;;;;;5053005;28;20024;-26
2022/08/27 08:59:40;;;;;;;7.30;5.00;;;24.80;92.80;;;;;;5052890;28;20017;-25
2022/08/27 09:02:10;;;;;;;5.97;4.82;;;24.80;92.70;;;;;;4999684;28;20033;-25
2022/08/27 09:04:36;;;;;;;6.53;4.88;;;24.80;92.70;;;;;;5052877;28;20040;-26
2022/08/27 09:07:17;;;;;;;7.22;5.18;;;24.80;92.70;;;;;;5052676;28;20391;-25
2022/08/27 09:09:51;;;;;;;9.65;5.50;;;24.80;92.70;;;;;;5052658;28;20051;-25
2022/08/27 09:12:23;;;;;;;7.72;4.95;;;24.90;92.70;;;;;;5052731;28;20087;-26
2022/08/27 09:15:16;;;;;;;9.13;5.68;;;24.90;92.60;;;;;;5052728;28;20025;-26
2022/08/27 09:17:42;;;;;;;11.35;5.43;;;24.90;92.60;;;;;;5052652;28;20375;-25
2022/08/27 09:20:09;;;;;;;7.85;5.20;;;24.90;92.60;;;;;;5052429;28;20044;-26
2022/08/27 09:23:03;;;;;;;7.90;5.38;;;24.90;92.60;;;;;;5052595;28;20488;-25
2022/08/27 09:25:36;;;;;;;6.75;4.80;;;24.90;92.60;;;;;;5052569;28;20474;-26
2022/08/27 09:31:06;;;;;;;8.25;5.57;;;24.90;92.60;;;;;;5052387;28;20086;-26
2022/08/27 09:33:33;;;;;;;6.95;4.90;;;24.90;92.60;;;;;;5034340;28;20107;-26
2022/08/27 09:36:06;;;;;;;7.05;4.90;;;24.90;92.60;;;;;;5051960;28;20075;-26
2022/08/27 09:38:34;;;;;;;6.77;5.10;;;24.90;92.60;;;;;;5052211;28;20079;-26
2022/08/27 09:41:05;;;;;;;6.65;5.35;;;24.90;92.60;;;;;;5052304;28;20025;-26
2022/08/27 09:43:32;;;;;;;8.40;5.10;;;24.80;92.50;;;;;;5052264;28;20033;-26
2022/08/27 09:46:06;;;;;;;5.68;5.13;;;24.80;92.60;;;;;;5052256;28;20029;-26
2022/08/27 09:48:32;;;;;;;;;;;24.80;92.70;;;;;;5034728;28;20025;-26
2022/08/27 09:51:01;;;;;;;9.02;5.60;;;24.80;92.60;;;;;;5052004;28;19916;-25
2022/08/27 09:53:40;;;;;;;7.18;5.50;;;24.80;92.70;;;;;;5052074;28;20029;-27
2022/08/27 09:56:08;;;;;;;7.63;5.60;;;24.80;92.70;;;;;;5051954;28;20063;-26
2022/08/27 09:58:43;;;;;;;8.45;5.60;;;24.70;92.80;;;;;;5051878;28;20025;-26
2022/08/27 10:01:19;;;;;;;8.05;5.68;;;24.70;92.90;;;;;;5051764;28;20027;-26
2022/08/27 10:03:45;;;;;;;6.10;5.45;;;24.60;92.90;;;;;;5051947;28;20104;-25
2022/08/27 10:06:11;;;;;;;6.72;5.72;;;24.60;92.90;;;;;;5051807;28;20060;-26
2022/08/27 10:08:42;;;;;;;10.07;5.32;;;24.60;93.00;;;;;;5051788;28;20056;-26
2022/08/27 10:11:33;;;;;;;7.03;5.40;;;24.60;93.00;;;;;;5051771;28;20017;-26
2022/08/27 10:14:12;;;;;;;8.02;5.47;;;24.60;93.00;;;;;;5051944;28;20025;-25
2022/08/27 10:17:10;;;;;;;6.63;5.07;;;24.60;93.00;;;;;;5051815;28;20044;-26
2022/08/27 10:19:52;;;;;;;8.15;5.10;;;24.60;93.10;;;;;;5051671;28;20104;-26
2022/08/27 10:22:42;;;;;;;8.77;5.43;;;24.60;93.00;;;;;;5051703;28;20032;-25
2022/08/27 10:25:08;;;;;;;6.80;5.32;;;24.70;93.10;;;;;;5051797;28;20595;-25
2022/08/27 10:27:33;;;;;;;7.68;4.85;;;24.60;93.00;;;;;;5051711;28;20493;-25
2022/08/27 10:30:06;;;;;;;5.53;4.90;;;24.60;93.00;;;;;;5051433;28;20463;-26
2022/08/27 10:33:08;;;;;;;6.85;5.40;;;24.60;93.00;;;;;;5051553;28;20116;-26
2022/08/27 10:36:05;;;;;;;7.05;5.00;;;24.60;93.00;;;;;;5051435;28;20033;-26
2022/08/27 10:38:57;;;;;;;8.00;4.97;;;24.60;93.10;;;;;;5051370;28;20029;-25
2022/08/27 10:41:55;;;;;;;6.22;4.88;;;24.60;93.10;;;;;;5047055;28;20482;-26
2022/08/27 10:44:40;;;;;;;5.78;5.15;;;24.60;93.10;;;;;;5051408;28;20119;-26
2022/08/27 10:47:14;;;;;;;;;;;24.60;93.10;;;;;;5054271;28;20021;-26
2022/08/27 10:50:10;;;;;;;8.27;5.47;;;24.50;93.10;;;;;;5055340;28;20366;-26
2022/08/27 10:52:53;;;;;;;6.57;5.03;;;24.50;93.40;;;;;;5034242;28;20279;-26
2022/08/27 10:55:29;;;;;;;6.77;5.40;;;24.60;93.00;;;;;;5055286;28;20066;-26
2022/08/27 10:58:09;;;;;;;5.85;5.07;;;24.60;93.00;;;;;;5055307;28;20252;-26
2022/08/27 11:00:45;;;;;;;5.75;4.93;;;24.60;93.00;;;;;;5055133;28;20083;-25
2022/08/27 11:03:24;;;;;;;5.50;4.70;;;24.70;93.00;;;;;;5055228;28;20025;-26
2022/08/27 11:05:50;;;;;;;14.38;10.38;;;24.70;92.90;;;;;;5055429;28;20033;-27
2022/08/27 11:08:27;;;;;;;13.45;9.35;;;24.60;94.10;;;;;;5037046;28;20033;-26
2022/08/27 11:11:04;;;;;;;16.00;9.00;;;24.40;95.50;;;;;;5054938;28;20025;-26
2022/08/27 11:13:37;;;;;;;13.63;9.02;;;24.30;95.10;;;;;;5055157;28;20452;-26
2022/08/27 11:16:15;;;;;;;17.35;8.55;;;24.40;95.20;;;;;;5054832;28;20057;-26
2022/08/27 11:18:50;;;;;;;14.30;7.97;;;24.50;95.20;;;;;;5054743;28;20374;-26
2022/08/27 11:21:25;;;;;;;13.70;7.88;;;24.50;95.10;;;;;;5054780;28;20082;-26
2022/08/27 11:24:12;;;;;;;12.65;7.20;;;24.50;94.90;;;;;;5054907;28;20025;-26
2022/08/27 11:26:40;;;;;;;12.52;7.22;;;24.50;94.80;;;;;;5054774;28;20025;-26
2022/08/27 11:29:18;;;;;;;11.32;7.15;;;24.60;94.70;;;;;;5054618;28;20051;-27
2022/08/27 11:31:51;;;;;;;13.25;7.05;;;24.70;94.60;;;;;;5054571;28;20108;-27
2022/08/27 11:34:42;;;;;;;18.73;7.00;;;24.80;94.50;;;;;;5054453;28;20017;-26
2022/08/27 11:37:20;;;;;;;10.38;6.13;;;24.80;94.40;;;;;;5010276;28;20385;-26
2022/08/27 11:39:58;;;;;;;9.18;6.40;;;24.80;94.20;;;;;;5054349;28;20461;-27
2022/08/27 11:42:47;;;;;;;9.35;6.13;;;24.90;94.10;;;;;;5054517;28;20446;-26
2022/08/27 11:45:33;;;;;;;6.93;5.63;;;24.90;94.00;;;;;;5054299;28;20100;-27
2022/08/27 11:48:02;;;;;;;8.05;5.35;;;25.00;93.90;;;;;;5054406;28;20522;-27
2022/08/27 11:50:30;;;;;;;9.60;5.68;;;24.90;93.80;;;;;;5054117;28;20436;-26
2022/08/27 11:53:04;;;;;;;7.90;5.32;;;25.00;93.70;;;;;;5054282;28;20021;-26
2022/08/27 11:55:31;;;;;;;7.18;5.03;;;25.00;93.70;;;;;;5054282;28;20025;-26
2022/08/27 11:58:26;;;;;;;6.10;4.70;;;25.00;93.60;;;;;;5054026;28;20021;-27
2022/08/27 12:00:53;;;;;;;9.15;4.90;;;25.00;93.60;;;;;;5054113;28;20029;-26
2022/08/27 12:03:18;;;;;;;6.72;5.10;;;25.10;93.60;;;;;;5054105;28;20028;-27
2022/08/27 12:06:06;;;;;;;7.03;4.97;;;25.10;93.50;;;;;;5053943;28;20021;-26
2022/08/27 12:08:34;;;;;;;5.68;4.90;;;25.10;93.50;;;;;;5035978;28;20032;-26
2022/08/27 12:11:17;;;;;;;7.45;4.82;;;25.10;93.50;;;;;;5053773;28;20051;-26
2022/08/27 12:13:54;;;;;;;7.33;4.97;;;25.10;93.40;;;;;;5053928;28;20108;-26
2022/08/27 12:16:58;;;;;;;7.43;5.25;;;25.10;93.40;;;;;;5053834;28;20021;-26
2022/08/27 12:19:59;;;;;;;9.68;5.38;;;25.10;93.30;;;;;;5053697;28;20517;-26
2022/08/27 12:23:38;;;;;;;5.72;4.68;;;25.20;93.30;;;;;;5054194;28;20025;-26
2022/08/27 12:25:25;;;;;;;7.25;5.05;;;25.20;93.30;;;;;;5053501;28;20052;-26
2022/08/27 12:27:57;;;;;;;8.55;5.35;;;25.10;93.20;;;;;;5053816;28;20052;-26
2022/08/27 12:30:31;;;;;;;8.45;4.78;;;25.10;93.20;;;;;;5053254;28;20025;-27
2022/08/27 12:33:02;;;;;;;6.90;5.10;;;25.10;93.20;;;;;;5053635;28;20092;-27
2022/08/27 12:35:50;;;;;;;7.05;5.05;;;25.10;93.10;;;;;;5053210;28;20048;-26
2022/08/27 12:38:31;;;;;;;7.47;4.97;;;25.10;93.10;;;;;;5053424;28;20029;-27
2022/08/27 12:41:02;;;;;;;12.10;5.20;;;25.10;93.10;;;;;;5053393;28;20021;-26
2022/08/27 12:43:33;;;;;;;6.07;4.53;;;25.10;93.10;;;;;;5053314;28;20045;-26
2022/08/27 12:46:06;;;;;;;8.07;4.35;;;25.10;93.10;;;;;;5053207;28;20025;-26
2022/08/27 12:48:50;;;;;;;6.03;4.68;;;25.00;93.10;;;;;;5053124;28;20032;-26
2022/08/27 12:51:46;;;;;;;6.18;4.88;;;25.00;93.10;;;;;;5053075;28;20028;-27
2022/08/27 12:54:33;;;;;;;5.35;4.75;;;25.00;93.10;;;;;;5031992;28;20045;-27
2022/08/27 12:57:05;;;;;;;6.97;4.75;;;25.00;93.10;;;;;;5053136;28;20486;-27
2022/08/27 12:59:55;;;;;;;5.65;4.50;;;25.00;93.10;;;;;;5052800;28;20105;-26
2022/08/27 13:02:26;;;;;;;7.57;4.55;;;25.00;93.10;;;;;;5052782;28;20021;-27
2022/08/27 13:04:52;;;;;;;6.85;4.45;;;24.90;93.10;;;;;;5052844;28;20022;-26
2022/08/27 13:07:37;;;;;;;5.82;4.68;;;24.90;93.10;;;;;;5052867;28;20021;-26
2022/08/27 13:10:21;;;;;;;;;;;24.90;93.50;;;;;;5052561;28;20032;-27
2022/08/27 13:12:59;;;;;;;6.03;5.25;;;24.90;93.20;;;;;;5052598;28;20357;-27